createdAt,value
2018-03-25T00:21:10.163Z,20.07
2018-03-25T00:23:36.823Z,19.80
2018-03-25T00:26:03.558Z,16.20
2018-03-25T00:28:30.198Z,22.33
2018-03-25T00:30:57.727Z,15.37
2018-03-25T00:33:24.356Z,17.23
2018-03-25T00:35:51.006Z,15.30
2018-03-25T00:38:17.624Z,20.10
2018-03-25T00:40:44.259Z,17.20
2018-03-25T00:43:10.939Z,15.30
2018-03-25T00:45:37.689Z,17.73
2018-03-25T00:48:04.292Z,15.97
2018-03-25T00:50:30.966Z,20.30
2018-03-25T00:52:57.607Z,16.30
2018-03-25T00:55:24.208Z,14.23
2018-03-25T00:57:50.939Z,14.07
2018-03-25T01:00:19.309Z,19.77
2018-03-25T01:02:45.952Z,17.90
2018-03-25T01:05:12.587Z,16.80
2018-03-25T01:07:41.396Z,16.03
2018-03-25T01:10:08.265Z,18.53
2018-03-25T01:12:34.863Z,15.63
2018-03-25T01:15:01.474Z,16.03
2018-03-25T01:17:28.094Z,17.97
2018-03-25T01:19:54.721Z,17.50
2018-03-25T01:22:21.350Z,18.83
2018-03-25T01:24:47.981Z,17.50
2018-03-25T01:27:14.620Z,19.23
2018-03-25T01:29:41.217Z,25.87
2018-03-25T01:32:07.851Z,21.33
2018-03-25T01:34:34.505Z,20.17
2018-03-25T01:37:01.134Z,22.30
2018-03-25T01:39:27.768Z,18.27
2018-03-25T01:41:54.456Z,21.80
2018-03-25T01:44:21.103Z,22.50
2018-03-25T01:46:47.688Z,17.00
2018-03-25T01:49:14.345Z,19.23
2018-03-25T01:51:40.947Z,19.03
2018-03-25T01:54:07.572Z,23.23
2018-03-25T01:56:34.294Z,18.93
2018-03-25T01:59:01.178Z,19.93
2018-03-25T02:01:27.759Z,21.67
2018-03-25T02:03:54.552Z,18.73
2018-03-25T02:06:21.148Z,19.93
2018-03-25T02:08:47.770Z,18.43
2018-03-25T02:11:14.360Z,17.60
2018-03-25T02:13:41.015Z,18.03
2018-03-25T02:16:07.635Z,19.47
2018-03-25T02:18:34.262Z,25.30
2018-03-25T02:21:00.861Z,16.00
2018-03-25T02:23:27.494Z,17.23
2018-03-25T02:25:54.131Z,19.30
2018-03-25T02:28:20.721Z,20.30
2018-03-25T02:30:47.385Z,15.70
2018-03-25T02:33:14.006Z,19.93
2018-03-25T02:35:40.619Z,18.37
2018-03-25T02:38:07.241Z,18.83
2018-03-25T02:40:33.844Z,21.60
2018-03-25T02:43:00.449Z,18.63
2018-03-25T02:45:27.068Z,16.97
2018-03-25T02:47:53.733Z,18.83
2018-03-25T02:50:20.363Z,21.10
2018-03-25T02:52:46.957Z,17.87
2018-03-25T02:55:13.615Z,15.30
2018-03-25T02:57:40.223Z,18.40
2018-03-25T03:00:06.821Z,20.30
2018-03-25T03:02:34.114Z,20.97
2018-03-25T03:05:00.729Z,20.33
2018-03-25T03:07:27.339Z,22.50
2018-03-25T03:09:53.950Z,22.90
2018-03-25T03:12:20.547Z,21.07
2018-03-25T03:14:47.162Z,19.53
2018-03-25T03:17:13.798Z,16.77
2018-03-25T03:19:40.396Z,19.57
2018-03-25T03:22:07.057Z,22.10
2018-03-25T03:24:33.651Z,19.00
2018-03-25T03:27:00.247Z,20.10
2018-03-25T03:29:26.840Z,26.73
2018-03-25T03:31:53.533Z,20.67
2018-03-25T03:34:20.129Z,18.60
2018-03-25T03:36:46.821Z,23.30
2018-03-25T03:39:13.456Z,20.87
2018-03-25T03:41:40.112Z,19.93
2018-03-25T03:44:06.737Z,18.73
2018-03-25T03:46:33.320Z,18.90
2018-03-25T03:48:59.936Z,20.23
2018-03-25T03:51:26.560Z,17.00
2018-03-25T03:53:53.210Z,18.70
2018-03-25T03:56:19.848Z,20.57
2018-03-25T03:58:46.452Z,20.20
2018-03-25T04:01:13.070Z,20.87
2018-03-25T04:03:39.686Z,23.80
2018-03-25T04:06:06.297Z,22.10
2018-03-25T04:08:33.172Z,23.57
2018-03-25T04:11:00.010Z,20.83
2018-03-25T04:13:26.828Z,27.33
2018-03-25T04:15:53.454Z,20.47
2018-03-25T04:18:20.107Z,23.67
2018-03-25T04:20:46.719Z,21.73
2018-03-25T04:23:13.341Z,19.37
2018-03-25T04:25:39.971Z,19.40
2018-03-25T04:28:06.560Z,22.87
2018-03-25T04:30:33.209Z,25.10
2018-03-25T04:32:59.834Z,26.90
2018-03-25T04:35:26.592Z,21.53
2018-03-25T04:37:53.187Z,24.17
2018-03-25T04:40:19.845Z,23.10
2018-03-25T04:42:46.446Z,18.63
2018-03-25T04:45:13.071Z,26.00
2018-03-25T04:47:39.688Z,23.00
2018-03-25T04:50:06.301Z,22.97
2018-03-25T04:52:32.929Z,23.87
2018-03-25T04:54:59.545Z,24.83
2018-03-25T04:57:26.162Z,27.30
2018-03-25T04:59:52.799Z,28.30
2018-03-25T05:02:19.415Z,24.50
2018-03-25T05:04:46.045Z,22.43
2018-03-25T05:07:12.657Z,24.77
2018-03-25T05:09:39.280Z,22.03
2018-03-25T05:12:05.894Z,23.27
2018-03-25T05:14:32.527Z,24.13
2018-03-25T05:16:59.130Z,22.83
2018-03-25T05:19:25.768Z,22.90
2018-03-25T05:21:52.402Z,25.57
2018-03-25T05:24:19.029Z,27.80
2018-03-25T05:26:45.604Z,25.87
2018-03-25T05:29:13.125Z,24.07
2018-03-25T05:31:39.728Z,29.93
2018-03-25T05:34:06.370Z,24.57
2018-03-25T05:36:32.964Z,23.80
2018-03-25T05:38:59.584Z,24.20
2018-03-25T05:41:26.190Z,27.20
2018-03-25T05:43:52.810Z,27.30
2018-03-25T05:46:19.418Z,22.90
2018-03-25T05:48:46.208Z,25.60
2018-03-25T05:51:12.868Z,26.90
2018-03-25T05:53:39.497Z,22.73
2018-03-25T05:56:06.072Z,27.50
2018-03-25T05:58:32.708Z,26.03
2018-03-25T06:00:59.378Z,27.43
2018-03-25T06:03:25.998Z,26.47
2018-03-25T06:05:52.611Z,23.23
2018-03-25T06:08:19.259Z,27.70
2018-03-25T06:10:46.048Z,28.87
2018-03-25T06:13:12.648Z,25.70
2018-03-25T06:15:39.300Z,27.07
2018-03-25T06:18:05.887Z,22.60
2018-03-25T06:20:32.508Z,26.17
2018-03-25T06:22:59.146Z,27.73
2018-03-25T06:25:25.764Z,31.33
2018-03-25T06:27:52.380Z,24.67
2018-03-25T06:30:19.028Z,21.40
2018-03-25T06:32:45.600Z,23.50
2018-03-25T06:35:12.224Z,23.23
2018-03-25T06:37:38.820Z,30.17
2018-03-25T06:40:05.473Z,27.03
2018-03-25T06:42:32.068Z,25.87
2018-03-25T06:44:58.647Z,25.37
2018-03-25T06:47:25.275Z,24.30
2018-03-25T06:49:51.913Z,24.87
2018-03-25T06:52:18.554Z,24.60
2018-03-25T06:54:45.152Z,25.33
2018-03-25T06:57:11.759Z,26.90
2018-03-25T06:59:38.366Z,25.23
2018-03-25T07:02:05.012Z,27.67
2018-03-25T07:04:31.707Z,23.00
2018-03-25T07:06:58.330Z,30.30
2018-03-25T07:09:24.915Z,28.23
2018-03-25T07:11:51.561Z,28.83
2018-03-25T07:14:18.150Z,23.10
2018-03-25T07:16:44.817Z,28.13
2018-03-25T07:19:11.384Z,24.33
2018-03-25T07:21:37.984Z,23.43
2018-03-25T07:24:04.640Z,27.63
2018-03-25T07:26:31.274Z,32.50
2018-03-25T07:28:58.098Z,25.70
2018-03-25T07:31:24.676Z,32.27
2018-03-25T07:33:51.309Z,26.00
2018-03-25T07:36:17.917Z,25.03
2018-03-25T07:38:44.555Z,30.20
2018-03-25T07:41:11.212Z,27.67
2018-03-25T07:43:37.925Z,25.73
2018-03-25T07:46:04.501Z,25.97
2018-03-25T07:48:31.118Z,24.17
2018-03-25T07:50:57.720Z,23.57
2018-03-25T07:53:24.396Z,28.77
2018-03-25T07:55:51.160Z,25.77
2018-03-25T07:58:18.279Z,26.20
2018-03-25T08:00:44.947Z,25.23
2018-03-25T08:03:11.570Z,24.33
2018-03-25T08:05:38.519Z,26.57
2018-03-25T08:08:05.686Z,30.10
2018-03-25T08:10:32.492Z,28.90
2018-03-25T08:12:59.110Z,25.87
2018-03-25T08:15:25.841Z,28.50
2018-03-25T08:17:52.457Z,27.60
2018-03-25T08:20:19.068Z,27.27
2018-03-25T08:22:45.710Z,25.77
2018-03-25T08:25:12.538Z,28.13
2018-03-25T08:27:39.292Z,25.93
2018-03-25T08:30:05.937Z,26.30
2018-03-25T08:32:32.838Z,31.77
2018-03-25T08:34:59.461Z,29.60
2018-03-25T08:37:26.061Z,30.70
2018-03-25T08:39:52.735Z,27.10
2018-03-25T08:42:19.320Z,26.63
2018-03-25T08:44:45.953Z,27.47
2018-03-25T08:47:12.724Z,28.53
2018-03-25T08:49:39.339Z,24.67
2018-03-25T08:52:05.969Z,27.63
2018-03-25T08:54:32.585Z,27.80
2018-03-25T08:56:59.220Z,26.90
2018-03-25T08:59:25.840Z,26.80
2018-03-25T09:01:52.504Z,27.73
2018-03-25T09:04:19.134Z,30.37
2018-03-25T09:06:45.930Z,29.10
2018-03-25T09:09:12.553Z,29.10
2018-03-25T09:11:39.186Z,26.00
2018-03-25T09:14:05.834Z,31.27
2018-03-25T09:16:32.468Z,25.70
2018-03-25T09:18:59.101Z,29.77
2018-03-25T09:21:25.758Z,31.33
2018-03-25T09:23:52.383Z,28.57
2018-03-25T09:26:19.021Z,30.33
2018-03-25T09:28:45.637Z,28.00
2018-03-25T09:31:12.292Z,30.10
2018-03-25T09:33:38.903Z,27.37
2018-03-25T09:36:05.545Z,29.17
2018-03-25T09:38:32.205Z,24.30
2018-03-25T09:40:58.831Z,30.00
2018-03-25T09:43:26.059Z,26.17
2018-03-25T09:45:52.917Z,26.70
2018-03-25T09:48:19.578Z,29.17
2018-03-25T09:50:46.193Z,25.97
2018-03-25T09:53:12.828Z,24.77
2018-03-25T09:55:39.443Z,30.27
2018-03-25T09:58:06.035Z,28.53
2018-03-25T10:00:36.657Z,28.47
2018-03-25T10:03:09.557Z,28.97
2018-03-25T10:05:36.197Z,40.37
2018-03-25T10:08:02.832Z,26.47
2018-03-25T10:10:29.440Z,30.20
2018-03-25T10:12:56.079Z,26.50
2018-03-25T10:15:22.751Z,28.43
2018-03-25T10:17:49.578Z,29.43
2018-03-25T10:20:16.307Z,30.50
2018-03-25T10:22:42.949Z,32.27
2018-03-25T10:25:09.569Z,32.17
2018-03-25T10:27:36.161Z,30.27
2018-03-25T10:30:02.800Z,29.57
2018-03-25T10:32:29.422Z,32.00
2018-03-25T10:34:56.035Z,27.50
2018-03-25T10:37:22.668Z,27.73
2018-03-25T10:39:49.385Z,32.47
2018-03-25T10:42:16.420Z,33.30
2018-03-25T10:44:43.123Z,28.63
2018-03-25T10:47:09.763Z,29.10
2018-03-25T10:49:36.456Z,28.87
2018-03-25T10:52:04.321Z,31.27
2018-03-25T10:54:31.264Z,36.23
2018-03-25T10:57:00.490Z,29.40
2018-03-25T10:59:27.224Z,29.17
2018-03-25T11:01:53.860Z,32.37
2018-03-25T11:04:20.521Z,36.67
2018-03-25T11:06:47.160Z,30.23
2018-03-25T11:09:13.922Z,29.10
2018-03-25T11:11:40.568Z,31.67
2018-03-25T11:14:07.315Z,32.27
2018-03-25T11:16:34.389Z,32.63
2018-03-25T11:19:01.098Z,29.77
2018-03-25T11:21:28.392Z,28.90
2018-03-25T11:23:55.080Z,27.43
2018-03-25T11:26:21.764Z,30.40
2018-03-25T11:28:48.386Z,29.20
2018-03-25T11:31:14.957Z,33.60
2018-03-25T11:33:41.578Z,33.07
2018-03-25T11:36:08.201Z,27.50
2018-03-25T11:38:35.502Z,32.37
2018-03-25T11:41:02.094Z,33.40
2018-03-25T11:43:28.736Z,30.40
2018-03-25T11:45:55.337Z,28.50
2018-03-25T11:48:21.971Z,30.43
2018-03-25T11:50:48.557Z,28.70
2018-03-25T11:53:15.208Z,28.40
2018-03-25T11:55:41.859Z,34.30
2018-03-25T11:58:08.475Z,26.67
2018-03-25T12:00:35.081Z,30.80
2018-03-25T12:03:01.773Z,30.43
2018-03-25T12:05:28.411Z,31.70
2018-03-25T12:07:55.189Z,31.07
2018-03-25T12:10:21.913Z,30.70
2018-03-25T12:12:48.543Z,32.03
2018-03-25T12:15:15.336Z,27.30
2018-03-25T12:17:42.011Z,28.53
2018-03-25T12:20:08.703Z,29.53
2018-03-25T12:22:35.287Z,26.50
2018-03-25T12:25:02.260Z,27.53
2018-03-25T12:27:28.876Z,27.80
2018-03-25T12:29:55.498Z,29.10
2018-03-25T12:32:22.115Z,28.37
2018-03-25T12:34:48.775Z,26.17
2018-03-25T12:37:15.392Z,26.23
2018-03-25T12:39:42.056Z,27.43
2018-03-25T12:42:08.760Z,26.00
2018-03-25T12:44:35.440Z,27.23
2018-03-25T12:47:02.060Z,29.10
2018-03-25T12:49:28.676Z,25.80
2018-03-25T12:51:55.306Z,28.30
2018-03-25T12:54:21.932Z,27.87
2018-03-25T12:56:48.642Z,28.57
2018-03-25T12:59:15.320Z,23.90
2018-03-25T13:01:42.024Z,27.63
2018-03-25T13:04:08.802Z,24.37
2018-03-25T13:06:35.412Z,23.73
2018-03-25T13:09:02.058Z,25.07
2018-03-25T13:11:28.669Z,25.40
2018-03-25T13:13:55.280Z,23.83
2018-03-25T13:16:21.896Z,25.03
2018-03-25T13:18:48.568Z,25.67
2018-03-25T13:21:15.229Z,26.00
2018-03-25T13:23:41.916Z,24.70
2018-03-25T13:26:08.521Z,22.33
2018-03-25T13:28:35.116Z,20.33
2018-03-25T13:31:01.770Z,22.77
2018-03-25T13:33:28.351Z,22.37
2018-03-25T13:35:54.975Z,24.70
2018-03-25T13:38:21.612Z,23.50
2018-03-25T13:40:48.235Z,23.03
2018-03-25T13:43:14.861Z,23.30
2018-03-25T13:45:41.459Z,26.47
2018-03-25T13:48:08.064Z,20.37
2018-03-25T13:50:34.664Z,21.80
2018-03-25T13:53:01.286Z,22.60
2018-03-25T13:55:27.896Z,22.80
2018-03-25T13:57:54.585Z,23.40
2018-03-25T14:00:21.188Z,21.60
2018-03-25T14:02:47.891Z,23.67
2018-03-25T14:05:14.468Z,20.93
2018-03-25T14:07:41.125Z,20.57
2018-03-25T14:10:07.712Z,20.37
2018-03-25T14:12:34.400Z,21.57
2018-03-25T14:15:01.042Z,22.23
2018-03-25T14:17:27.753Z,31.83
2018-03-25T14:19:54.425Z,22.97
2018-03-25T14:22:21.057Z,25.77
2018-03-25T14:24:47.757Z,24.30
2018-03-25T14:27:14.550Z,21.97
2018-03-25T14:29:41.156Z,24.70
2018-03-25T14:32:07.803Z,22.00
2018-03-25T14:34:34.495Z,21.37
2018-03-25T14:37:01.086Z,23.00
2018-03-25T14:39:27.761Z,24.77
2018-03-25T14:41:54.356Z,27.23
2018-03-25T14:44:21.436Z,22.63
2018-03-25T14:46:48.053Z,21.83
2018-03-25T14:49:14.745Z,30.93
2018-03-25T14:51:41.435Z,27.47
2018-03-25T14:54:08.074Z,24.83
2018-03-25T14:56:34.730Z,23.40
2018-03-25T14:59:01.312Z,22.27
2018-03-25T15:01:27.953Z,24.10
2018-03-25T15:03:54.555Z,24.80
2018-03-25T15:06:21.224Z,23.87
2018-03-25T15:08:47.837Z,21.97
2018-03-25T15:11:14.505Z,23.73
2018-03-25T15:13:41.166Z,22.27
2018-03-25T15:16:07.762Z,21.53
2018-03-25T15:18:34.503Z,24.03
2018-03-25T15:21:01.110Z,22.13
2018-03-25T15:23:27.733Z,25.43
2018-03-25T15:25:54.364Z,22.63
2018-03-25T15:28:20.956Z,21.90
2018-03-25T15:30:48.572Z,21.07
2018-03-25T15:33:15.236Z,20.30
2018-03-25T15:35:41.850Z,20.30
2018-03-25T15:38:08.520Z,20.03
2018-03-25T15:40:35.123Z,20.90
2018-03-25T15:43:01.740Z,18.73
2018-03-25T15:45:28.352Z,19.23
2018-03-25T15:47:54.977Z,17.40
2018-03-25T15:50:21.597Z,19.53
2018-03-25T15:52:48.210Z,20.90
2018-03-25T15:55:14.869Z,20.90
2018-03-25T15:57:41.520Z,20.33
2018-03-25T16:00:08.134Z,23.63
2018-03-25T16:02:34.876Z,22.00
2018-03-25T16:05:01.405Z,23.27
2018-03-25T16:07:28.005Z,22.20
2018-03-25T16:09:54.648Z,26.60
2018-03-25T16:12:21.254Z,25.47
2018-03-25T16:14:47.872Z,24.60
2018-03-25T16:17:14.477Z,21.43
2018-03-25T16:19:41.084Z,20.40
2018-03-25T16:22:07.713Z,21.13
2018-03-25T16:24:34.354Z,22.33
2018-03-25T16:27:00.981Z,24.73
2018-03-25T16:29:27.676Z,20.43
2018-03-25T16:31:54.283Z,21.60
2018-03-25T16:34:20.955Z,23.40
2018-03-25T16:36:47.570Z,22.33
2018-03-25T16:39:14.280Z,22.40
2018-03-25T16:41:40.901Z,24.87
2018-03-25T16:44:07.548Z,20.20
2018-03-25T16:46:34.344Z,22.77
2018-03-25T16:49:01.108Z,21.90
2018-03-25T16:51:27.768Z,25.20
2018-03-25T16:53:54.410Z,24.20
2018-03-25T16:56:21.039Z,22.73
2018-03-25T16:58:47.711Z,23.67
2018-03-25T17:01:14.322Z,27.87
2018-03-25T17:03:40.945Z,23.67
2018-03-25T17:06:07.640Z,22.53
2018-03-25T17:08:34.432Z,23.07
2018-03-25T17:11:01.170Z,26.83
2018-03-25T17:13:27.875Z,29.40
2018-03-25T17:15:54.579Z,28.03
2018-03-25T17:18:21.268Z,29.47
2018-03-25T17:20:47.920Z,26.60
2018-03-25T17:23:14.569Z,26.90
2018-03-25T17:25:41.197Z,25.07
2018-03-25T17:28:07.837Z,27.47
2018-03-25T17:30:34.452Z,26.43
2018-03-25T17:33:01.060Z,26.27
2018-03-25T17:35:27.724Z,30.53
2018-03-25T17:37:54.356Z,24.13
2018-03-25T17:40:21.025Z,22.20
2018-03-25T17:42:47.711Z,23.30
2018-03-25T17:45:14.532Z,24.00
2018-03-25T17:47:41.306Z,31.37
2018-03-25T17:50:08.022Z,23.10
2018-03-25T17:52:34.585Z,21.53
2018-03-25T17:55:01.268Z,24.03
2018-03-25T17:57:27.864Z,25.60
2018-03-25T17:59:54.489Z,21.37
2018-03-25T18:02:21.248Z,22.07
2018-03-25T18:04:47.907Z,24.30
2018-03-25T18:07:14.534Z,26.07
2018-03-25T18:09:41.179Z,25.90
2018-03-25T18:12:08.039Z,25.20
2018-03-25T18:14:34.800Z,25.67
2018-03-25T18:17:01.468Z,21.17
2018-03-25T18:19:28.102Z,21.83
2018-03-25T18:21:54.782Z,18.40
2018-03-25T18:24:21.640Z,20.43
2018-03-25T18:26:48.294Z,24.70
2018-03-25T18:29:14.975Z,23.33
2018-03-25T18:31:41.679Z,23.47
2018-03-25T18:34:09.358Z,20.70
2018-03-25T18:36:36.122Z,23.07
2018-03-25T18:39:02.755Z,23.40
2018-03-25T18:41:29.425Z,23.73
2018-03-25T18:43:56.189Z,24.77
2018-03-25T18:46:22.792Z,32.67
2018-03-25T18:48:49.437Z,26.97
2018-03-25T18:51:16.104Z,34.03
2018-03-25T18:53:42.924Z,27.10
2018-03-25T18:56:09.577Z,29.07
2018-03-25T18:58:36.259Z,28.30
2018-03-25T19:01:02.895Z,25.87
2018-03-25T19:03:29.530Z,23.70
2018-03-25T19:05:56.280Z,31.83
2018-03-25T19:08:22.881Z,27.27
2018-03-25T19:10:49.745Z,28.20
2018-03-25T19:13:16.436Z,31.20
2018-03-25T19:15:43.098Z,27.00
2018-03-25T19:18:09.728Z,38.27
2018-03-25T19:20:36.409Z,24.60
2018-03-25T19:23:03.048Z,29.70
2018-03-25T19:25:29.681Z,30.27
2018-03-25T19:27:56.302Z,33.43
2018-03-25T19:30:22.967Z,32.93
2018-03-25T19:32:49.586Z,34.20
2018-03-25T19:35:16.271Z,37.03
2018-03-25T19:37:42.899Z,31.10
2018-03-25T19:40:09.536Z,29.67
2018-03-25T19:42:36.190Z,28.50
2018-03-25T19:45:02.798Z,27.20
2018-03-25T19:47:29.467Z,29.93
2018-03-25T19:49:56.055Z,27.13
2018-03-25T19:52:22.732Z,24.83
2018-03-25T19:54:49.358Z,26.10
2018-03-25T19:57:16.057Z,24.87
2018-03-25T19:59:42.673Z,24.57
2018-03-25T20:02:09.293Z,22.67
2018-03-25T20:04:35.968Z,25.37
2018-03-25T20:07:02.583Z,24.67
2018-03-25T20:09:29.258Z,26.33
2018-03-25T20:11:55.962Z,25.73
2018-03-25T20:14:22.698Z,25.70
2018-03-25T20:16:49.371Z,24.83
2018-03-25T20:19:16.573Z,24.43
2018-03-25T20:21:43.203Z,24.30
2018-03-25T20:24:09.851Z,21.90
2018-03-25T20:26:36.502Z,25.43
2018-03-25T20:29:03.165Z,21.37
2018-03-25T20:31:29.806Z,23.93
2018-03-25T20:33:56.498Z,23.33
2018-03-25T20:36:23.221Z,21.40
2018-03-25T20:38:49.984Z,19.73
2018-03-25T20:41:16.663Z,21.83
2018-03-25T20:43:43.557Z,23.00
2018-03-25T20:46:10.216Z,21.73
2018-03-25T20:48:36.955Z,20.03
2018-03-25T20:51:03.662Z,21.50
2018-03-25T20:53:30.352Z,26.70
2018-03-25T20:55:57.051Z,21.03
2018-03-25T20:58:23.659Z,19.40
2018-03-25T21:00:50.294Z,20.30
2018-03-25T21:03:16.893Z,23.50
2018-03-25T21:05:43.535Z,23.40
2018-03-25T21:08:10.222Z,20.20
2018-03-25T21:10:36.845Z,21.17
2018-03-25T21:13:03.528Z,25.37
2018-03-25T21:15:30.299Z,20.43
2018-03-25T21:17:56.920Z,22.30
2018-03-25T21:20:23.523Z,19.67
2018-03-25T21:22:50.175Z,23.20
2018-03-25T21:25:16.856Z,25.10
2018-03-25T21:27:43.495Z,23.50
2018-03-25T21:30:10.089Z,24.83
2018-03-25T21:32:36.728Z,23.97
2018-03-25T21:35:03.353Z,27.07
2018-03-25T21:37:30.018Z,27.10
2018-03-25T21:39:56.628Z,24.10
2018-03-25T21:42:23.631Z,28.50
2018-03-25T21:44:50.274Z,28.07
2018-03-25T21:47:16.901Z,32.10
2018-03-25T21:49:43.494Z,30.20
2018-03-25T21:52:10.132Z,27.77
2018-03-25T21:54:36.756Z,31.00
2018-03-25T21:57:03.437Z,33.27
2018-03-25T21:59:30.084Z,35.13
2018-03-25T22:01:56.690Z,27.40
2018-03-25T22:04:23.302Z,30.97
2018-03-25T22:06:50.028Z,34.03
2018-03-25T22:09:16.631Z,33.10
2018-03-25T22:11:43.270Z,35.50
2018-03-25T22:14:09.912Z,32.23
2018-03-25T22:16:36.510Z,35.00
2018-03-25T22:19:03.183Z,35.57
2018-03-25T22:21:29.842Z,39.10
2018-03-25T22:23:56.500Z,37.93
2018-03-25T22:26:23.107Z,39.67
2018-03-25T22:28:49.746Z,43.80
2018-03-25T22:31:16.366Z,36.03
2018-03-25T22:33:42.980Z,35.53
2018-03-25T22:36:09.601Z,39.80
2018-03-25T22:38:36.283Z,44.00
2018-03-25T22:41:02.892Z,46.90
2018-03-25T22:43:29.621Z,43.30
